createdAt,value
2023-01-22T00:01:24.852Z,24.00
2023-01-22T00:03:55.065Z,27.60
2023-01-22T00:06:23.870Z,26.80
2023-01-22T00:08:52.947Z,28.30
2023-01-22T00:11:21.173Z,27.90
2023-01-22T00:13:49.505Z,28.80
2023-01-22T00:16:18.740Z,27.80
2023-01-22T00:18:46.902Z,32.90
2023-01-22T00:21:15.055Z,42.60
2023-01-22T00:23:43.369Z,40.40
2023-01-22T00:26:15.608Z,41.00
2023-01-22T00:28:48.147Z,33.80
2023-01-22T00:31:17.508Z,33.90
2023-01-22T00:33:47.713Z,28.70
2023-01-22T00:36:21.242Z,35.40
2023-01-22T00:38:51.029Z,65.20
2023-01-22T00:41:20.488Z,40.40
2023-01-22T00:43:51.104Z,34.30
2023-01-22T00:46:20.930Z,31.70
2023-01-22T00:48:52.338Z,41.10
2023-01-22T00:51:20.701Z,39.60
2023-01-22T00:53:49.287Z,37.60
2023-01-22T00:56:18.193Z,32.30
2023-01-22T00:58:46.690Z,33.60
2023-01-22T01:01:15.806Z,33.80
2023-01-22T01:03:44.969Z,31.40
2023-01-22T01:06:21.757Z,34.30
2023-01-22T01:08:50.430Z,38.10
2023-01-22T01:11:25.373Z,36.60
2023-01-22T01:13:54.355Z,38.10
2023-01-22T01:16:31.772Z,39.40
2023-01-22T01:19:01.983Z,39.10
2023-01-22T01:21:31.207Z,41.40
2023-01-22T01:24:00.998Z,39.50
2023-01-22T01:26:29.544Z,33.20
2023-01-22T01:28:57.848Z,30.80
2023-01-22T01:31:26.653Z,28.40
2023-01-22T01:33:58.933Z,27.80
2023-01-22T01:36:47.215Z,28.60
2023-01-22T01:39:16.161Z,29.90
2023-01-22T01:41:44.658Z,30.50
2023-01-22T01:44:19.123Z,31.20
2023-01-22T01:46:53.282Z,30.80
2023-01-22T01:49:28.151Z,35.00
2023-01-22T01:52:01.638Z,39.90
2023-01-22T01:54:31.227Z,39.80
2023-01-22T01:57:09.222Z,34.70
2023-01-22T01:59:39.225Z,64.60
2023-01-22T02:02:07.946Z,46.00
2023-01-22T02:04:36.391Z,49.20
2023-01-22T02:07:06.131Z,46.40
2023-01-22T02:09:35.430Z,47.20
2023-01-22T02:12:04.699Z,47.70
2023-01-22T02:14:37.731Z,54.00
2023-01-22T02:17:09.660Z,45.90
2023-01-22T02:19:39.945Z,42.20
2023-01-22T02:22:17.217Z,45.60
2023-01-22T02:24:45.457Z,55.80
2023-01-22T02:27:13.651Z,61.80
2023-01-22T02:29:42.063Z,50.50
2023-01-22T02:32:12.884Z,45.40
2023-01-22T02:34:41.149Z,53.10
2023-01-22T02:37:11.577Z,47.50
2023-01-22T02:39:39.756Z,50.60
2023-01-22T02:42:09.161Z,44.70
2023-01-22T02:44:37.652Z,33.60
2023-01-22T02:47:07.482Z,39.20
2023-01-22T02:49:35.933Z,33.70
2023-01-22T02:52:04.732Z,24.00
2023-01-22T02:54:33.538Z,33.00
2023-01-22T02:57:01.910Z,34.50
2023-01-22T02:59:30.530Z,33.40
2023-01-22T03:01:58.905Z,34.30
2023-01-22T03:04:29.084Z,32.90
2023-01-22T03:06:57.305Z,35.10
2023-01-22T03:09:30.147Z,31.50
2023-01-22T03:11:59.354Z,34.60
2023-01-22T03:14:49.653Z,36.40
2023-01-22T03:17:36.969Z,37.40
2023-01-22T03:20:25.446Z,31.20
2023-01-22T03:22:54.935Z,32.80
2023-01-22T03:25:23.522Z,33.70
2023-01-22T03:28:16.882Z,30.80
2023-01-22T03:30:49.042Z,34.40
2023-01-22T03:33:18.390Z,34.10
2023-01-22T03:35:47.656Z,29.10
2023-01-22T03:38:19.614Z,27.00
2023-01-22T03:40:47.930Z,27.70
2023-01-22T03:43:16.382Z,26.80
2023-01-22T03:45:44.686Z,27.60
2023-01-22T03:48:14.989Z,28.70
2023-01-22T03:50:43.403Z,26.60
2023-01-22T03:53:11.647Z,28.70
2023-01-22T03:55:39.742Z,24.60
2023-01-22T03:58:08.827Z,24.20
2023-01-22T04:00:37.811Z,30.50
2023-01-22T04:03:06.505Z,28.50
2023-01-22T04:05:35.715Z,31.60
2023-01-22T04:08:04.889Z,33.60
2023-01-22T04:10:34.302Z,33.60
2023-01-22T04:13:04.296Z,30.70
2023-01-22T04:15:32.724Z,28.90
2023-01-22T04:18:04.871Z,31.20
2023-01-22T04:20:46.493Z,35.20
2023-01-22T04:23:30.622Z,39.10
2023-01-22T04:25:58.996Z,44.10
2023-01-22T04:28:27.475Z,42.90
2023-01-22T04:30:57.259Z,43.00
2023-01-22T04:34:01.408Z,79.30
2023-01-22T04:36:33.420Z,111.20
2023-01-22T04:39:02.181Z,126.10
2023-01-22T04:41:31.261Z,57.00
2023-01-22T04:43:59.459Z,47.50
2023-01-22T04:46:28.494Z,47.70
2023-01-22T04:48:56.919Z,42.80
2023-01-22T04:51:26.448Z,47.60
2023-01-22T04:53:56.339Z,43.60
2023-01-22T04:56:25.026Z,60.80
2023-01-22T04:58:53.205Z,52.60
2023-01-22T05:01:22.385Z,49.50
2023-01-22T05:03:51.594Z,42.60
2023-01-22T05:06:19.895Z,38.90
2023-01-22T05:08:48.148Z,32.70
2023-01-22T05:11:17.282Z,32.60
2023-01-22T05:13:54.668Z,28.80
2023-01-22T05:16:22.931Z,32.10
2023-01-22T05:18:51.262Z,35.80
2023-01-22T05:21:19.889Z,40.30
2023-01-22T05:23:48.984Z,66.20
2023-01-22T05:26:19.007Z,63.60
2023-01-22T05:29:01.663Z,344.80
2023-01-22T05:31:47.225Z,53.20
2023-01-22T05:34:32.380Z,49.40
2023-01-22T05:37:01.203Z,29.30
2023-01-22T05:39:31.908Z,33.70
2023-01-22T05:42:02.115Z,32.10
2023-01-22T05:44:32.772Z,24.70
2023-01-22T05:47:02.265Z,13.70
2023-01-22T05:49:53.171Z,14.10
2023-01-22T05:52:22.584Z,17.20
2023-01-22T05:54:50.750Z,16.80
2023-01-22T05:57:19.061Z,17.00
2023-01-22T05:59:47.820Z,19.00
2023-01-22T06:02:16.706Z,20.20
2023-01-22T06:04:45.635Z,24.90
2023-01-22T06:07:21.007Z,20.30
2023-01-22T06:09:49.746Z,22.50
2023-01-22T06:12:18.772Z,22.30
2023-01-22T06:14:48.252Z,25.70
2023-01-22T06:17:17.396Z,22.70
2023-01-22T06:19:55.205Z,24.50
2023-01-22T06:22:23.626Z,22.20
2023-01-22T06:24:55.295Z,23.00
2023-01-22T06:27:24.992Z,21.10
2023-01-22T06:29:59.743Z,21.70
2023-01-22T06:32:28.426Z,27.50
2023-01-22T06:34:56.836Z,197.20
2023-01-22T06:37:25.093Z,67.80
2023-01-22T06:39:53.647Z,59.20
2023-01-22T06:42:28.705Z,47.20
2023-01-22T06:44:57.798Z,27.30
2023-01-22T06:47:29.248Z,29.00
2023-01-22T06:49:57.364Z,31.90
2023-01-22T06:52:25.902Z,72.00
2023-01-22T06:54:54.285Z,61.20
2023-01-22T06:57:23.014Z,69.80
2023-01-22T06:59:52.379Z,70.30
2023-01-22T07:02:21.269Z,74.00
2023-01-22T07:04:49.760Z,64.50
2023-01-22T07:07:18.037Z,52.50
2023-01-22T07:09:46.354Z,63.20
2023-01-22T07:12:14.796Z,42.10
2023-01-22T07:14:43.385Z,32.70
2023-01-22T07:17:11.860Z,42.70
2023-01-22T07:19:40.133Z,42.80
2023-01-22T07:22:08.734Z,38.10
2023-01-22T07:24:37.110Z,104.60
2023-01-22T07:27:05.484Z,138.50
2023-01-22T07:29:33.902Z,86.40
2023-01-22T07:32:02.982Z,40.00
2023-01-22T07:34:31.652Z,42.50
2023-01-22T07:37:02.220Z,62.60
2023-01-22T07:39:30.558Z,59.10
2023-01-22T07:42:02.381Z,47.50
2023-01-22T07:44:32.012Z,48.50
2023-01-22T07:47:00.214Z,50.00
2023-01-22T07:49:28.710Z,55.70
2023-01-22T07:51:57.796Z,52.60
2023-01-22T07:54:26.179Z,56.40
2023-01-22T07:56:54.938Z,52.30
2023-01-22T07:59:23.333Z,45.80
2023-01-22T08:01:51.749Z,46.20
2023-01-22T08:04:20.222Z,45.00
2023-01-22T08:06:48.579Z,42.60
2023-01-22T08:09:25.239Z,40.60
2023-01-22T08:11:53.877Z,30.20
2023-01-22T08:14:22.739Z,32.30
2023-01-22T08:16:51.527Z,56.90
2023-01-22T08:19:19.923Z,35.20
2023-01-22T08:21:48.282Z,35.00
2023-01-22T08:24:16.674Z,34.10
2023-01-22T08:26:45.669Z,34.70
2023-01-22T08:29:15.183Z,38.80
2023-01-22T08:31:43.727Z,92.80
2023-01-22T08:34:12.344Z,34.90
2023-01-22T08:36:40.825Z,47.90
2023-01-22T08:39:10.977Z,26.70
2023-01-22T08:41:39.636Z,12.70
2023-01-22T08:44:08.379Z,10.90
2023-01-22T08:46:40.507Z,21.00
2023-01-22T08:49:09.185Z,22.90
2023-01-22T08:51:37.302Z,21.70
2023-01-22T08:54:05.937Z,18.40
2023-01-22T08:56:34.533Z,20.60
2023-01-22T08:59:06.892Z,11.40
2023-01-22T09:01:35.681Z,20.70
2023-01-22T09:04:08.043Z,27.20
2023-01-22T09:06:37.341Z,16.00
2023-01-22T09:09:06.968Z,10.60
2023-01-22T09:11:35.371Z,15.40
2023-01-22T09:14:04.274Z,15.60
2023-01-22T09:16:33.997Z,24.30
2023-01-22T09:19:02.332Z,22.70
2023-01-22T09:21:31.021Z,15.10
2023-01-22T09:23:59.912Z,14.80
2023-01-22T09:26:30.353Z,15.50
2023-01-22T09:29:01.821Z,12.10
2023-01-22T09:31:30.311Z,15.40
2023-01-22T09:33:59.741Z,18.80
2023-01-22T09:36:29.226Z,14.20
2023-01-22T09:38:57.765Z,15.40
2023-01-22T09:41:50.838Z,18.90
2023-01-22T09:44:27.779Z,16.90
2023-01-22T09:47:04.695Z,15.80
2023-01-22T09:49:52.444Z,11.80
2023-01-22T09:52:24.806Z,10.20
2023-01-22T09:54:53.602Z,9.60
2023-01-22T09:57:31.373Z,10.00
2023-01-22T10:00:00.322Z,8.80
2023-01-22T10:02:42.178Z,7.70
2023-01-22T10:05:32.311Z,8.00
2023-01-22T10:08:19.026Z,10.10
2023-01-22T10:10:48.511Z,10.70
2023-01-22T10:13:23.714Z,11.80
2023-01-22T10:15:54.687Z,11.60
2023-01-22T10:18:40.164Z,11.60
2023-01-22T10:21:28.200Z,12.50
2023-01-22T10:23:58.327Z,10.80
2023-01-22T10:26:29.466Z,16.90
2023-01-22T10:29:04.217Z,15.60
2023-01-22T10:31:36.694Z,12.50
2023-01-22T10:34:14.880Z,11.40
2023-01-22T10:36:50.631Z,9.90
2023-01-22T10:39:21.020Z,15.60
2023-01-22T10:41:50.483Z,12.60
2023-01-22T10:44:22.952Z,10.80
2023-01-22T10:46:52.867Z,10.50
2023-01-22T10:49:28.418Z,13.80
2023-01-22T10:51:59.860Z,9.40
2023-01-22T10:54:39.773Z,8.10
2023-01-22T10:57:36.690Z,9.50
2023-01-22T11:00:14.329Z,6.90
2023-01-22T11:02:47.368Z,8.20
2023-01-22T11:05:24.140Z,8.50
2023-01-22T11:07:59.807Z,10.20
2023-01-22T11:10:53.489Z,11.60
2023-01-22T11:13:31.845Z,13.90
2023-01-22T11:16:16.422Z,10.30
2023-01-22T11:19:05.804Z,18.40
2023-01-22T11:21:45.680Z,8.90
2023-01-22T11:24:19.171Z,9.90
2023-01-22T11:26:53.472Z,9.40
2023-01-22T11:29:48.971Z,9.50
2023-01-22T11:32:40.011Z,10.00
2023-01-22T11:35:20.350Z,10.40
2023-01-22T11:37:58.373Z,9.90
2023-01-22T11:40:30.850Z,9.40
2023-01-22T11:43:20.941Z,10.40
2023-01-22T11:46:16.998Z,10.50
2023-01-22T11:49:12.387Z,9.00
2023-01-22T11:52:02.065Z,11.50
2023-01-22T11:54:55.676Z,14.00
2023-01-22T11:57:47.159Z,9.50
2023-01-22T12:00:34.384Z,14.50
2023-01-22T12:03:28.632Z,10.20
2023-01-22T12:08:56.333Z,8.90
2023-01-22T12:11:56.196Z,11.50
2023-01-22T12:14:51.108Z,11.00
2023-01-22T12:17:40.042Z,9.90
2023-01-22T12:20:24.105Z,9.40
2023-01-22T12:22:58.101Z,11.60
2023-01-22T12:25:58.328Z,9.10
2023-01-22T12:28:37.872Z,10.50
2023-01-22T12:31:11.561Z,8.60
2023-01-22T12:33:42.324Z,8.40
2023-01-22T12:36:14.559Z,9.10
2023-01-22T12:39:07.956Z,11.20
2023-01-22T12:41:58.302Z,8.20
2023-01-22T12:44:49.760Z,9.50
2023-01-22T12:47:27.267Z,9.20
2023-01-22T12:49:55.665Z,10.30
2023-01-22T12:52:37.391Z,11.70
2023-01-22T12:55:38.029Z,11.60
2023-01-22T12:58:22.218Z,9.90
2023-01-22T13:01:14.113Z,11.50
2023-01-22T13:03:42.746Z,9.60
2023-01-22T13:06:30.594Z,11.30
2023-01-22T13:08:59.150Z,9.20
2023-01-22T13:11:36.781Z,12.90
2023-01-22T13:14:41.702Z,12.60
2023-01-22T13:17:27.760Z,13.40
2023-01-22T13:19:57.105Z,11.30
2023-01-22T13:22:27.743Z,13.50
2023-01-22T13:24:58.135Z,13.30
2023-01-22T13:27:32.569Z,15.70
2023-01-22T13:30:17.511Z,16.10
2023-01-22T13:32:46.172Z,15.80
2023-01-22T13:35:19.539Z,13.80
2023-01-22T13:37:51.910Z,14.40
2023-01-22T13:40:29.304Z,13.60
2023-01-22T13:43:00.068Z,12.70
2023-01-22T13:45:32.078Z,12.40
2023-01-22T13:48:03.966Z,15.10
2023-01-22T13:50:33.102Z,12.10
2023-01-22T13:53:03.680Z,11.80
2023-01-22T13:55:34.335Z,12.90
2023-01-22T13:58:04.581Z,13.30
2023-01-22T14:00:36.554Z,14.10
2023-01-22T14:03:22.097Z,10.10
2023-01-22T14:05:50.683Z,15.80
2023-01-22T14:08:18.960Z,14.50
2023-01-22T14:10:57.034Z,20.30
2023-01-22T14:13:25.658Z,35.90
2023-01-22T14:15:59.081Z,36.10
2023-01-22T14:18:32.191Z,17.00
2023-01-22T14:21:00.342Z,15.40
2023-01-22T14:23:28.995Z,13.10
2023-01-22T14:25:58.147Z,21.00
2023-01-22T14:28:31.118Z,25.40
2023-01-22T14:30:59.781Z,22.50
2023-01-22T14:33:32.137Z,20.70
2023-01-22T14:36:01.889Z,17.00
2023-01-22T14:38:30.151Z,18.50
2023-01-22T14:40:58.465Z,13.00
2023-01-22T14:43:27.123Z,14.00
2023-01-22T14:45:55.555Z,11.40
2023-01-22T14:48:24.598Z,12.20
2023-01-22T14:50:53.006Z,13.10
2023-01-22T14:53:22.176Z,19.80
2023-01-22T14:55:51.995Z,22.70
2023-01-22T14:58:22.116Z,17.20
2023-01-22T15:00:50.952Z,15.90
2023-01-22T15:03:19.697Z,13.10
2023-01-22T15:05:52.019Z,16.80
2023-01-22T15:08:20.240Z,13.40
2023-01-22T15:10:48.536Z,15.10
2023-01-22T15:13:16.899Z,16.20
2023-01-22T15:15:45.098Z,13.10
2023-01-22T15:18:13.557Z,11.10
2023-01-22T15:20:41.775Z,16.40
2023-01-22T15:23:10.009Z,15.20
2023-01-22T15:25:38.392Z,15.30
2023-01-22T15:28:06.698Z,15.70
2023-01-22T15:30:34.997Z,17.70
2023-01-22T15:33:03.223Z,18.30
2023-01-22T15:35:31.735Z,28.70
2023-01-22T15:38:00.709Z,43.10
2023-01-22T15:40:28.831Z,20.40
2023-01-22T15:42:57.058Z,17.60
2023-01-22T15:45:25.438Z,232.50
2023-01-22T15:47:54.763Z,198.60
2023-01-22T15:50:23.743Z,46.80
2023-01-22T15:52:56.316Z,78.20
2023-01-22T15:55:26.361Z,27.80
2023-01-22T15:57:54.508Z,28.90
2023-01-22T16:00:23.093Z,26.30
2023-01-22T16:02:51.388Z,21.00
2023-01-22T16:05:21.591Z,22.10
2023-01-22T16:07:52.247Z,34.20
2023-01-22T16:10:21.530Z,34.80
2023-01-22T16:12:50.115Z,45.70
2023-01-22T16:15:19.138Z,189.70
2023-01-22T16:17:47.390Z,105.50
2023-01-22T16:20:16.613Z,129.40
2023-01-22T16:22:46.220Z,130.50
2023-01-22T16:25:14.487Z,104.40
2023-01-22T16:27:42.897Z,80.70
2023-01-22T16:30:12.597Z,84.70
2023-01-22T16:32:46.312Z,71.40
2023-01-22T16:37:44.887Z,90.50
2023-01-22T16:40:14.077Z,104.40
2023-01-22T16:42:58.530Z,177.10
2023-01-22T16:45:27.010Z,82.40
2023-01-22T16:47:56.541Z,120.10
2023-01-22T16:50:25.119Z,137.40
2023-01-22T16:52:53.386Z,172.00
2023-01-22T16:55:21.760Z,115.30
2023-01-22T16:57:50.107Z,86.10
2023-01-22T17:00:19.561Z,54.10
2023-01-22T17:02:47.962Z,56.60
2023-01-22T17:05:16.315Z,39.10
2023-01-22T17:07:44.532Z,31.20
2023-01-22T17:10:12.770Z,62.60
2023-01-22T17:12:41.245Z,62.30
2023-01-22T17:15:10.152Z,99.50
2023-01-22T17:17:38.636Z,94.90
2023-01-22T17:20:07.742Z,95.20
2023-01-22T17:22:36.175Z,89.20
2023-01-22T17:25:05.241Z,104.30
2023-01-22T17:27:33.693Z,98.60
2023-01-22T17:30:02.368Z,102.20
2023-01-22T17:32:30.651Z,93.50
2023-01-22T17:34:58.815Z,91.60
2023-01-22T17:37:27.921Z,106.30
2023-01-22T17:39:56.219Z,114.00
2023-01-22T17:42:24.579Z,155.50
2023-01-22T17:44:52.960Z,78.90
2023-01-22T17:47:21.234Z,83.80
2023-01-22T17:49:49.993Z,75.50
2023-01-22T17:52:20.456Z,71.90
2023-01-22T17:54:48.625Z,83.40
2023-01-22T17:57:17.006Z,76.20
2023-01-22T17:59:45.721Z,89.40
2023-01-22T18:02:13.975Z,115.00
2023-01-22T18:04:42.196Z,122.10
2023-01-22T18:07:10.628Z,105.70
2023-01-22T18:09:38.918Z,103.10
2023-01-22T18:12:07.522Z,103.70
2023-01-22T18:14:35.778Z,103.70
2023-01-22T18:17:04.259Z,98.50
2023-01-22T18:19:32.438Z,105.90
2023-01-22T18:22:01.132Z,106.00
2023-01-22T18:24:32.578Z,97.60
2023-01-22T18:27:01.163Z,127.20
2023-01-22T18:29:29.543Z,119.00
2023-01-22T18:31:58.175Z,107.00
2023-01-22T18:34:26.831Z,119.70
2023-01-22T18:36:55.087Z,106.30
2023-01-22T18:39:23.490Z,147.30
2023-01-22T18:41:51.881Z,114.50
2023-01-22T18:44:21.667Z,118.80
2023-01-22T18:46:52.531Z,127.00
2023-01-22T18:49:20.877Z,131.10
2023-01-22T18:51:50.097Z,101.90
2023-01-22T18:54:18.570Z,85.50
2023-01-22T18:56:47.464Z,104.30
2023-01-22T18:59:19.015Z,83.90
2023-01-22T19:01:52.116Z,84.30
2023-01-22T19:04:22.230Z,86.00
2023-01-22T19:06:53.574Z,60.00
2023-01-22T19:09:21.962Z,60.10
2023-01-22T19:11:52.545Z,69.90
2023-01-22T19:14:22.318Z,59.20
2023-01-22T19:16:53.639Z,60.50
2023-01-22T19:19:23.298Z,47.60
2023-01-22T19:21:54.713Z,45.10
2023-01-22T19:24:26.962Z,69.30
2023-01-22T19:26:57.025Z,48.80
2023-01-22T19:29:26.659Z,40.00
2023-01-22T19:31:57.249Z,64.10
2023-01-22T19:34:29.210Z,77.80
2023-01-22T19:37:02.827Z,59.40
2023-01-22T19:39:33.046Z,79.30
2023-01-22T19:42:05.314Z,83.20
2023-01-22T19:44:35.657Z,92.60
2023-01-22T19:47:04.127Z,70.30
2023-01-22T19:49:33.027Z,79.20
2023-01-22T19:52:04.161Z,104.10
2023-01-22T19:54:32.398Z,115.00
2023-01-22T19:57:00.544Z,105.40
2023-01-22T19:59:28.902Z,95.10
2023-01-22T20:01:58.064Z,87.60
2023-01-22T20:04:30.080Z,76.90
2023-01-22T20:07:01.116Z,77.50
2023-01-22T20:09:30.718Z,73.50
2023-01-22T20:12:00.138Z,52.50
2023-01-22T20:14:32.175Z,59.20
2023-01-22T20:17:02.061Z,45.90
2023-01-22T20:19:30.887Z,33.70
2023-01-22T20:22:02.997Z,25.20
2023-01-22T20:24:31.440Z,33.00
2023-01-22T20:27:01.984Z,33.90
2023-01-22T20:29:30.955Z,32.90
2023-01-22T20:31:59.585Z,29.90
2023-01-22T20:34:28.156Z,30.30
2023-01-22T20:36:56.614Z,25.70
2023-01-22T20:39:27.088Z,23.60
2023-01-22T20:41:55.470Z,25.20
2023-01-22T20:44:24.109Z,22.90
2023-01-22T20:46:52.497Z,35.10
2023-01-22T20:49:22.099Z,36.70
2023-01-22T20:51:50.597Z,32.70
2023-01-22T20:54:19.280Z,28.00
2023-01-22T20:56:47.763Z,27.20
2023-01-22T20:59:20.237Z,32.00
2023-01-22T21:01:48.645Z,34.10
2023-01-22T21:04:18.442Z,38.00
2023-01-22T21:06:47.526Z,41.20
2023-01-22T21:09:16.021Z,43.60
2023-01-22T21:11:44.598Z,44.00
2023-01-22T21:14:18.199Z,66.40
2023-01-22T21:16:46.718Z,46.60
2023-01-22T21:19:18.447Z,41.30
2023-01-22T21:21:47.637Z,47.40
2023-01-22T21:24:16.527Z,58.30
2023-01-22T21:26:45.117Z,50.40
2023-01-22T21:29:17.079Z,43.70
2023-01-22T21:31:49.235Z,40.20
2023-01-22T21:34:23.366Z,44.30
2023-01-22T21:36:53.964Z,44.30
2023-01-22T21:39:24.811Z,59.60
2023-01-22T21:42:13.291Z,54.20
2023-01-22T21:45:08.089Z,59.10
2023-01-22T21:47:36.367Z,50.60
2023-01-22T21:50:05.286Z,58.30
2023-01-22T21:52:33.656Z,50.60
2023-01-22T21:55:02.234Z,54.60
2023-01-22T21:57:30.621Z,49.80
2023-01-22T21:59:59.099Z,48.30
2023-01-22T22:02:27.581Z,45.90
2023-01-22T22:04:57.181Z,50.00
2023-01-22T22:07:25.556Z,45.00
2023-01-22T22:09:53.945Z,53.30
2023-01-22T22:12:22.732Z,48.40
2023-01-22T22:14:51.265Z,43.40
2023-01-22T22:17:19.488Z,42.00
2023-01-22T22:19:47.977Z,47.90
2023-01-22T22:22:16.983Z,47.30
2023-01-22T22:24:45.252Z,43.50
2023-01-22T22:27:13.734Z,55.30
2023-01-22T22:29:42.121Z,57.30
2023-01-22T22:32:10.595Z,47.00
2023-01-22T22:34:38.819Z,50.90
2023-01-22T22:37:07.079Z,36.10
2023-01-22T22:39:35.427Z,28.90
2023-01-22T22:42:04.014Z,20.60
2023-01-22T22:44:32.285Z,23.50
2023-01-22T22:47:00.812Z,20.10
2023-01-22T22:49:29.149Z,22.70
2023-01-22T22:51:57.436Z,16.80
2023-01-22T22:54:25.730Z,14.20
2023-01-22T22:56:53.992Z,11.60
2023-01-22T22:59:22.681Z,23.40
2023-01-22T23:01:51.168Z,25.90
2023-01-22T23:04:19.620Z,22.50
2023-01-22T23:06:48.465Z,44.70
2023-01-22T23:09:21.321Z,47.30
2023-01-22T23:11:53.369Z,65.70
2023-01-22T23:14:24.972Z,74.70
2023-01-22T23:16:53.377Z,62.80
2023-01-22T23:19:24.812Z,55.20
2023-01-22T23:21:58.290Z,53.80
2023-01-22T23:26:54.935Z,52.50
2023-01-22T23:29:24.863Z,52.50
2023-01-22T23:31:53.442Z,41.50
2023-01-22T23:34:23.060Z,44.20
2023-01-22T23:36:52.041Z,43.90
2023-01-22T23:39:22.076Z,45.60
2023-01-22T23:41:50.549Z,57.50
2023-01-22T23:44:18.847Z,51.30
2023-01-22T23:46:47.096Z,41.00
2023-01-22T23:49:15.376Z,43.60
2023-01-22T23:51:44.995Z,51.30
2023-01-22T23:54:13.474Z,48.90
2023-01-22T23:56:41.681Z,50.50
2023-01-22T23:59:11.459Z,52.70
